sensor_id;sensor_type;location;lat;lon;timestamp;pressure;altitude;pressure_sealevel;temperature;humidity
50087;BME280;35967;50.718;7.050;2023-04-03T00:02:18;102023.69;;;5.56;70.55
50087;BME280;35967;50.718;7.050;2023-04-03T00:12:22;102027.19;;;5.61;71.89
50087;BME280;35967;50.718;7.050;2023-04-03T00:22:25;102021.91;;;5.53;71.98
50087;BME280;35967;50.718;7.050;2023-04-03T00:32:31;102020.22;;;5.52;72.45
50087;BME280;35967;50.718;7.050;2023-04-03T00:42:36;102019.31;;;5.50;71.18
50087;BME280;35967;50.718;7.050;2023-04-03T00:52:40;102007.25;;;5.45;70.78
50087;BME280;35967;50.718;7.050;2023-04-03T01:02:44;102014.94;;;5.46;71.20
50087;BME280;35967;50.718;7.050;2023-04-03T01:12:51;102004.81;;;5.49;70.54
50087;BME280;35967;50.718;7.050;2023-04-03T01:22:59;102004.84;;;5.51;71.86
50087;BME280;35967;50.718;7.050;2023-04-03T01:33:10;102004.72;;;5.46;71.17
50087;BME280;35967;50.718;7.050;2023-04-03T01:43:14;102001.25;;;5.43;72.19
50087;BME280;35967;50.718;7.050;2023-04-03T01:53:19;101998.50;;;5.33;73.21
50087;BME280;35967;50.718;7.050;2023-04-03T02:03:22;101997.41;;;5.20;73.62
50087;BME280;35967;50.718;7.050;2023-04-03T02:13:27;102005.19;;;5.27;72.92
50087;BME280;35967;50.718;7.050;2023-04-03T02:23:30;102011.81;;;5.18;73.43
50087;BME280;35967;50.718;7.050;2023-04-03T02:33:35;102014.75;;;4.97;73.51
50087;BME280;35967;50.718;7.050;2023-04-03T02:43:41;102011.47;;;5.03;74.32
50087;BME280;35967;50.718;7.050;2023-04-03T02:53:46;102020.88;;;5.04;74.83
50087;BME280;35967;50.718;7.050;2023-04-03T03:03:53;102018.13;;;4.96;75.12
50087;BME280;35967;50.718;7.050;2023-04-03T03:13:58;102024.75;;;4.89;75.53
50087;BME280;35967;50.718;7.050;2023-04-03T03:24:01;102024.72;;;4.86;76.60
50087;BME280;35967;50.718;7.050;2023-04-03T03:34:06;102026.91;;;4.72;76.83
50087;BME280;35967;50.718;7.050;2023-04-03T03:44:09;102025.06;;;4.67;77.21
50087;BME280;35967;50.718;7.050;2023-04-03T03:54:14;102030.19;;;4.67;76.15
50087;BME280;35967;50.718;7.050;2023-04-03T04:04:17;102025.13;;;4.35;75.68
50087;BME280;35967;50.718;7.050;2023-04-03T04:14:22;102039.31;;;4.23;74.63
50087;BME280;35967;50.718;7.050;2023-04-03T04:24:26;102044.00;;;4.08;73.00
50087;BME280;35967;50.718;7.050;2023-04-03T04:34:32;102031.59;;;3.90;72.55
50087;BME280;35967;50.718;7.050;2023-04-03T04:44:36;102053.78;;;3.94;72.43
50087;BME280;35967;50.718;7.050;2023-04-03T04:54:40;102055.31;;;3.89;72.19
50087;BME280;35967;50.718;7.050;2023-04-03T05:04:44;102061.00;;;3.78;71.52
50087;BME280;35967;50.718;7.050;2023-04-03T05:14:55;102069.72;;;3.58;72.33
50087;BME280;35967;50.718;7.050;2023-04-03T05:25:00;102077.75;;;3.70;71.80
50087;BME280;35967;50.718;7.050;2023-04-03T05:35:06;102080.31;;;3.72;71.16
50087;BME280;35967;50.718;7.050;2023-04-03T05:45:10;102097.06;;;3.63;71.53
50087;BME280;35967;50.718;7.050;2023-04-03T05:55:16;102096.25;;;6.06;63.81
50087;BME280;35967;50.718;7.050;2023-04-03T06:05:19;102110.31;;;5.10;66.27
50087;BME280;35967;50.718;7.050;2023-04-03T06:15:24;102121.00;;;4.60;67.30
50087;BME280;35967;50.718;7.050;2023-04-03T06:25:27;102131.75;;;4.82;66.07
50087;BME280;35967;50.718;7.050;2023-04-03T06:35:31;102129.19;;;5.17;65.38
50087;BME280;35967;50.718;7.050;2023-04-03T06:45:36;102125.56;;;5.44;63.38
50087;BME280;35967;50.718;7.050;2023-04-03T06:55:42;102128.91;;;5.41;62.95
50087;BME280;35967;50.718;7.050;2023-04-03T07:05:45;102143.91;;;5.27;61.34
50087;BME280;35967;50.718;7.050;2023-04-03T07:15:50;102137.41;;;5.40;60.48
50087;BME280;35967;50.718;7.050;2023-04-03T07:25:53;102129.50;;;5.69;59.57
50087;BME280;35967;50.718;7.050;2023-04-03T07:35:58;102136.38;;;6.10;59.01
50087;BME280;35967;50.718;7.050;2023-04-03T07:46:04;102132.94;;;6.09;58.80
50087;BME280;35967;50.718;7.050;2023-04-03T07:56:10;102137.53;;;6.26;58.61
50087;BME280;35967;50.718;7.050;2023-04-03T08:06:13;102137.94;;;6.46;57.74
50087;BME280;35967;50.718;7.050;2023-04-03T08:16:22;102147.78;;;6.72;55.97
50087;BME280;35967;50.718;7.050;2023-04-03T08:26:27;102149.03;;;6.95;55.69
50087;BME280;35967;50.718;7.050;2023-04-03T08:36:33;102157.13;;;7.20;56.26
50087;BME280;35967;50.718;7.050;2023-04-03T08:46:46;102158.88;;;7.23;54.02
50087;BME280;35967;50.718;7.050;2023-04-03T08:56:51;102162.13;;;6.62;53.77
50087;BME280;35967;50.718;7.050;2023-04-03T09:06:58;102175.63;;;7.02;54.09
50087;BME280;35967;50.718;7.050;2023-04-03T09:17:12;102175.63;;;7.56;53.82
50087;BME280;35967;50.718;7.050;2023-04-03T09:27:17;102157.00;;;7.68;50.86
50087;BME280;35967;50.718;7.050;2023-04-03T09:37:36;102162.19;;;7.71;50.09
50087;BME280;35967;50.718;7.050;2023-04-03T09:47:41;102165.72;;;7.82;49.91
50087;BME280;35967;50.718;7.050;2023-04-03T09:57:48;102163.22;;;7.84;48.14
50087;BME280;35967;50.718;7.050;2023-04-03T10:08:07;102154.63;;;7.83;49.11
50087;BME280;35967;50.718;7.050;2023-04-03T10:18:27;102153.47;;;8.24;46.09
50087;BME280;35967;50.718;7.050;2023-04-03T10:28:37;102134.84;;;8.45;44.03
50087;BME280;35967;50.718;7.050;2023-04-03T10:38:51;102124.06;;;8.73;40.97
50087;BME280;35967;50.718;7.050;2023-04-03T10:49:05;102128.81;;;8.37;38.93
50087;BME280;35967;50.718;7.050;2023-04-03T11:11:24;102117.19;;;8.75;38.05
50087;BME280;35967;50.718;7.050;2023-04-03T11:21:32;102110.81;;;9.32;37.57
50087;BME280;35967;50.718;7.050;2023-04-03T11:31:48;102097.16;;;9.38;37.04
50087;BME280;35967;50.718;7.050;2023-04-03T11:42:15;102090.25;;;9.31;37.71
50087;BME280;35967;50.718;7.050;2023-04-03T12:03:00;102066.56;;;9.92;36.09
50087;BME280;35967;50.718;7.050;2023-04-03T12:13:13;102066.38;;;9.55;35.95
50087;BME280;35967;50.718;7.050;2023-04-03T12:23:29;102047.78;;;10.38;34.56
50087;BME280;35967;50.718;7.050;2023-04-03T12:33:43;102036.66;;;10.73;31.04
50087;BME280;35967;50.718;7.050;2023-04-03T12:44:01;102035.78;;;10.96;30.55
50087;BME280;35967;50.718;7.050;2023-04-03T12:54:14;102029.78;;;10.79;30.45
50087;BME280;35967;50.718;7.050;2023-04-03T13:04:19;102030.59;;;10.13;30.28
50087;BME280;35967;50.718;7.050;2023-04-03T13:14:25;102005.75;;;10.73;31.10
50087;BME280;35967;50.718;7.050;2023-04-03T13:24:34;101999.66;;;10.02;32.30
50087;BME280;35967;50.718;7.050;2023-04-03T13:34:41;101997.13;;;10.22;32.11
50087;BME280;35967;50.718;7.050;2023-04-03T13:44:49;101973.97;;;10.79;33.11
50087;BME280;35967;50.718;7.050;2023-04-03T13:55:18;101968.88;;;10.57;33.31
50087;BME280;35967;50.718;7.050;2023-04-03T14:05:39;101952.47;;;10.88;33.61
50087;BME280;35967;50.718;7.050;2023-04-03T14:15:43;101952.44;;;11.07;33.76
50087;BME280;35967;50.718;7.050;2023-04-03T14:25:47;101939.72;;;10.40;34.34
50087;BME280;35967;50.718;7.050;2023-04-03T14:35:51;101922.53;;;10.53;34.06
50087;BME280;35967;50.718;7.050;2023-04-03T14:45:59;101916.53;;;10.04;34.84
50087;BME280;35967;50.718;7.050;2023-04-03T14:56:04;101918.22;;;10.07;33.37
50087;BME280;35967;50.718;7.050;2023-04-03T15:06:11;101921.63;;;9.83;35.03
50087;BME280;35967;50.718;7.050;2023-04-03T15:16:17;101899.38;;;10.03;34.15
50087;BME280;35967;50.718;7.050;2023-04-03T15:26:22;101895.91;;;9.81;34.63
50087;BME280;35967;50.718;7.050;2023-04-03T15:36:26;101900.19;;;9.65;35.51
50087;BME280;35967;50.718;7.050;2023-04-03T15:46:36;101902.75;;;9.71;35.06
50087;BME280;35967;50.718;7.050;2023-04-03T15:56:40;101898.41;;;9.45;35.41
50087;BME280;35967;50.718;7.050;2023-04-03T16:06:46;101905.28;;;9.54;35.61
50087;BME280;35967;50.718;7.050;2023-04-03T16:16:51;101904.44;;;9.47;35.37
50087;BME280;35967;50.718;7.050;2023-04-03T16:26:56;101904.44;;;9.52;36.21
50087;BME280;35967;50.718;7.050;2023-04-03T16:36:59;101912.97;;;9.50;35.84
50087;BME280;35967;50.718;7.050;2023-04-03T16:47:04;101917.19;;;9.26;35.31
50087;BME280;35967;50.718;7.050;2023-04-03T16:57:09;101920.66;;;9.31;36.22
50087;BME280;35967;50.718;7.050;2023-04-03T17:07:13;101926.59;;;9.13;36.08
50087;BME280;35967;50.718;7.050;2023-04-03T17:17:20;101924.88;;;9.12;37.35
50087;BME280;35967;50.718;7.050;2023-04-03T17:27:25;101916.09;;;8.74;36.70
50087;BME280;35967;50.718;7.050;2023-04-03T17:37:31;101915.22;;;8.74;37.00
50087;BME280;35967;50.718;7.050;2023-04-03T17:47:35;101923.84;;;8.82;37.38
50087;BME280;35967;50.718;7.050;2023-04-03T17:57:38;101937.41;;;8.59;38.00
50087;BME280;35967;50.718;7.050;2023-04-03T18:07:43;101941.63;;;8.49;38.57
50087;BME280;35967;50.718;7.050;2023-04-03T18:17:46;101943.16;;;8.29;38.38
50087;BME280;35967;50.718;7.050;2023-04-03T18:27:53;101959.22;;;8.08;38.71
50087;BME280;35967;50.718;7.050;2023-04-03T18:37:58;101960.75;;;7.92;39.09
50087;BME280;35967;50.718;7.050;2023-04-03T18:48:03;101962.47;;;7.93;40.48
50087;BME280;35967;50.718;7.050;2023-04-03T18:58:07;101978.53;;;7.73;40.85
50087;BME280;35967;50.718;7.050;2023-04-03T19:08:12;101991.50;;;7.90;41.50
50087;BME280;35967;50.718;7.050;2023-04-03T19:18:15;101996.13;;;7.47;42.47
50087;BME280;35967;50.718;7.050;2023-04-03T19:28:20;102005.19;;;7.20;42.41
50087;BME280;35967;50.718;7.050;2023-04-03T19:38:23;102015.47;;;7.23;43.54
50087;BME280;35967;50.718;7.050;2023-04-03T19:48:28;102019.53;;;7.08;43.53
50087;BME280;35967;50.718;7.050;2023-04-03T19:58:31;102021.81;;;6.90;44.00
50087;BME280;35967;50.718;7.050;2023-04-03T20:08:36;102034.59;;;6.87;43.75
50087;BME280;35967;50.718;7.050;2023-04-03T20:18:39;102036.84;;;6.68;44.44
50087;BME280;35967;50.718;7.050;2023-04-03T20:28:44;102037.41;;;6.52;44.51
50087;BME280;35967;50.718;7.050;2023-04-03T20:38:47;102039.81;;;6.42;45.08
50087;BME280;35967;50.718;7.050;2023-04-03T20:48:54;102047.19;;;6.25;45.07
50087;BME280;35967;50.718;7.050;2023-04-03T20:58:58;102045.56;;;6.29;45.25
50087;BME280;35967;50.718;7.050;2023-04-03T21:19:45;102050.28;;;6.09;45.80
50087;BME280;35967;50.718;7.050;2023-04-03T21:29:49;102054.78;;;6.22;45.48
50087;BME280;35967;50.718;7.050;2023-04-03T21:39:55;102042.03;;;5.81;46.00
50087;BME280;35967;50.718;7.050;2023-04-03T21:49:58;102045.38;;;5.77;46.09
50087;BME280;35967;50.718;7.050;2023-04-03T22:00:04;102042.75;;;5.74;46.41
50087;BME280;35967;50.718;7.050;2023-04-03T22:10:12;102040.38;;;5.81;46.36
50087;BME280;35967;50.718;7.050;2023-04-03T22:20:17;102050.69;;;5.86;46.79
50087;BME280;35967;50.718;7.050;2023-04-03T22:30:21;102051.94;;;5.65;48.20
50087;BME280;35967;50.718;7.050;2023-04-03T22:40:26;102050.28;;;5.67;47.63
50087;BME280;35967;50.718;7.050;2023-04-03T22:50:29;102045.59;;;5.46;47.84
50087;BME280;35967;50.718;7.050;2023-04-03T23:00:34;102041.09;;;5.34;51.18
50087;BME280;35967;50.718;7.050;2023-04-03T23:10:39;102036.47;;;5.18;52.33
50087;BME280;35967;50.718;7.050;2023-04-03T23:20:44;102039.34;;;4.95;50.52
50087;BME280;35967;50.718;7.050;2023-04-03T23:30:46;102031.84;;;5.01;52.20
50087;BME280;35967;50.718;7.050;2023-04-03T23:40:51;102032.94;;;4.74;50.76
50087;BME280;35967;50.718;7.050;2023-04-03T23:50:54;102042.22;;;4.72;52.88
